sensor_id;sensor_type;location;lat;lon;timestamp;P1;durP1;ratioP1;P2;durP2;ratioP2
15946;SDS011;8072;52.554;7.966;2023-08-17T00:01:41;5.45;;;2.03;;
15946;SDS011;8072;52.554;7.966;2023-08-17T00:04:07;3.40;;;2.23;;
15946;SDS011;8072;52.554;7.966;2023-08-17T00:06:33;4.10;;;2.03;;
15946;SDS011;8072;52.554;7.966;2023-08-17T00:08:59;4.13;;;2.27;;
15946;SDS011;8072;52.554;7.966;2023-08-17T00:11:24;3.63;;;1.87;;
15946;SDS011;8072;52.554;7.966;2023-08-17T00:13:50;6.73;;;2.10;;
15946;SDS011;8072;52.554;7.966;2023-08-17T00:16:17;6.07;;;2.00;;
15946;SDS011;8072;52.554;7.966;2023-08-17T00:18:42;4.60;;;2.30;;
15946;SDS011;8072;52.554;7.966;2023-08-17T00:21:08;5.13;;;2.30;;
15946;SDS011;8072;52.554;7.966;2023-08-17T00:23:34;3.77;;;2.53;;
15946;SDS011;8072;52.554;7.966;2023-08-17T00:26:00;5.70;;;2.30;;
15946;SDS011;8072;52.554;7.966;2023-08-17T00:28:26;5.10;;;2.03;;
15946;SDS011;8072;52.554;7.966;2023-08-17T00:30:52;6.27;;;1.90;;
15946;SDS011;8072;52.554;7.966;2023-08-17T00:33:17;6.80;;;2.10;;
15946;SDS011;8072;52.554;7.966;2023-08-17T00:35:43;3.90;;;2.20;;
15946;SDS011;8072;52.554;7.966;2023-08-17T00:38:11;5.17;;;2.10;;
15946;SDS011;8072;52.554;7.966;2023-08-17T00:40:37;5.37;;;2.10;;
15946;SDS011;8072;52.554;7.966;2023-08-17T00:43:03;2.57;;;2.20;;
15946;SDS011;8072;52.554;7.966;2023-08-17T00:45:30;2.67;;;2.30;;
15946;SDS011;8072;52.554;7.966;2023-08-17T00:47:57;3.90;;;2.10;;
15946;SDS011;8072;52.554;7.966;2023-08-17T00:50:24;5.97;;;2.20;;
15946;SDS011;8072;52.554;7.966;2023-08-17T00:52:53;8.20;;;2.03;;
15946;SDS011;8072;52.554;7.966;2023-08-17T00:55:20;7.33;;;2.20;;
15946;SDS011;8072;52.554;7.966;2023-08-17T00:57:46;4.20;;;1.97;;
15946;SDS011;8072;52.554;7.966;2023-08-17T01:00:12;4.73;;;2.30;;
15946;SDS011;8072;52.554;7.966;2023-08-17T01:02:42;6.10;;;1.97;;
15946;SDS011;8072;52.554;7.966;2023-08-17T01:05:08;5.10;;;2.33;;
15946;SDS011;8072;52.554;7.966;2023-08-17T01:07:35;4.20;;;2.10;;
15946;SDS011;8072;52.554;7.966;2023-08-17T01:10:02;6.83;;;2.43;;
15946;SDS011;8072;52.554;7.966;2023-08-17T01:15:19;5.43;;;2.10;;
15946;SDS011;8072;52.554;7.966;2023-08-17T01:20:26;4.43;;;2.17;;
15946;SDS011;8072;52.554;7.966;2023-08-17T01:22:52;3.17;;;1.80;;
15946;SDS011;8072;52.554;7.966;2023-08-17T01:25:27;4.27;;;1.80;;
15946;SDS011;8072;52.554;7.966;2023-08-17T01:27:53;5.53;;;2.83;;
15946;SDS011;8072;52.554;7.966;2023-08-17T01:30:19;5.83;;;2.30;;
15946;SDS011;8072;52.554;7.966;2023-08-17T01:32:49;5.63;;;2.10;;
15946;SDS011;8072;52.554;7.966;2023-08-17T01:35:28;7.17;;;2.40;;
15946;SDS011;8072;52.554;7.966;2023-08-17T01:38:02;4.93;;;2.43;;
15946;SDS011;8072;52.554;7.966;2023-08-17T01:40:33;3.83;;;2.10;;
15946;SDS011;8072;52.554;7.966;2023-08-17T01:43:00;9.70;;;3.30;;
15946;SDS011;8072;52.554;7.966;2023-08-17T01:45:27;4.40;;;2.13;;
15946;SDS011;8072;52.554;7.966;2023-08-17T01:47:55;4.83;;;2.10;;
15946;SDS011;8072;52.554;7.966;2023-08-17T01:50:21;7.83;;;2.20;;
15946;SDS011;8072;52.554;7.966;2023-08-17T01:52:47;5.93;;;2.10;;
15946;SDS011;8072;52.554;7.966;2023-08-17T01:55:12;7.27;;;2.10;;
15946;SDS011;8072;52.554;7.966;2023-08-17T01:57:38;5.20;;;2.30;;
15946;SDS011;8072;52.554;7.966;2023-08-17T02:00:04;2.13;;;1.80;;
15946;SDS011;8072;52.554;7.966;2023-08-17T02:02:31;6.23;;;2.13;;
15946;SDS011;8072;52.554;7.966;2023-08-17T02:04:57;7.80;;;2.53;;
15946;SDS011;8072;52.554;7.966;2023-08-17T02:07:22;8.17;;;1.83;;
15946;SDS011;8072;52.554;7.966;2023-08-17T02:09:48;7.60;;;2.43;;
15946;SDS011;8072;52.554;7.966;2023-08-17T02:12:14;4.50;;;2.17;;
15946;SDS011;8072;52.554;7.966;2023-08-17T02:14:40;4.33;;;2.10;;
15946;SDS011;8072;52.554;7.966;2023-08-17T02:17:06;5.63;;;2.27;;
15946;SDS011;8072;52.554;7.966;2023-08-17T02:19:33;5.57;;;2.13;;
15946;SDS011;8072;52.554;7.966;2023-08-17T02:21:59;5.50;;;2.43;;
15946;SDS011;8072;52.554;7.966;2023-08-17T02:24:25;7.97;;;2.60;;
15946;SDS011;8072;52.554;7.966;2023-08-17T02:26:51;2.50;;;1.90;;
15946;SDS011;8072;52.554;7.966;2023-08-17T02:29:17;5.13;;;2.20;;
15946;SDS011;8072;52.554;7.966;2023-08-17T02:31:43;5.30;;;2.20;;
15946;SDS011;8072;52.554;7.966;2023-08-17T02:34:09;3.30;;;2.07;;
15946;SDS011;8072;52.554;7.966;2023-08-17T02:36:35;6.03;;;2.20;;
15946;SDS011;8072;52.554;7.966;2023-08-17T02:39:00;8.43;;;2.20;;
15946;SDS011;8072;52.554;7.966;2023-08-17T02:41:30;4.43;;;2.20;;
15946;SDS011;8072;52.554;7.966;2023-08-17T02:43:57;6.10;;;2.80;;
15946;SDS011;8072;52.554;7.966;2023-08-17T02:46:23;5.53;;;2.37;;
15946;SDS011;8072;52.554;7.966;2023-08-17T02:48:49;6.33;;;2.70;;
15946;SDS011;8072;52.554;7.966;2023-08-17T02:51:15;3.77;;;2.07;;
15946;SDS011;8072;52.554;7.966;2023-08-17T02:53:41;3.73;;;2.60;;
15946;SDS011;8072;52.554;7.966;2023-08-17T02:56:07;7.07;;;2.93;;
15946;SDS011;8072;52.554;7.966;2023-08-17T02:58:37;5.63;;;2.30;;
15946;SDS011;8072;52.554;7.966;2023-08-17T03:01:06;4.53;;;2.40;;
15946;SDS011;8072;52.554;7.966;2023-08-17T03:03:33;7.07;;;2.67;;
15946;SDS011;8072;52.554;7.966;2023-08-17T03:05:59;6.47;;;2.40;;
15946;SDS011;8072;52.554;7.966;2023-08-17T03:08:25;6.50;;;2.20;;
15946;SDS011;8072;52.554;7.966;2023-08-17T03:10:52;6.63;;;2.40;;
15946;SDS011;8072;52.554;7.966;2023-08-17T03:13:17;4.80;;;2.33;;
15946;SDS011;8072;52.554;7.966;2023-08-17T03:15:43;7.40;;;2.50;;
15946;SDS011;8072;52.554;7.966;2023-08-17T03:18:09;7.10;;;2.60;;
15946;SDS011;8072;52.554;7.966;2023-08-17T03:20:35;7.00;;;2.50;;
15946;SDS011;8072;52.554;7.966;2023-08-17T03:23:00;5.33;;;2.23;;
15946;SDS011;8072;52.554;7.966;2023-08-17T03:25:26;3.83;;;2.10;;
15946;SDS011;8072;52.554;7.966;2023-08-17T03:27:52;4.97;;;2.37;;
15946;SDS011;8072;52.554;7.966;2023-08-17T03:30:18;6.87;;;2.50;;
15946;SDS011;8072;52.554;7.966;2023-08-17T03:32:44;5.20;;;2.50;;
15946;SDS011;8072;52.554;7.966;2023-08-17T03:35:11;5.50;;;2.50;;
15946;SDS011;8072;52.554;7.966;2023-08-17T03:37:38;6.37;;;2.30;;
15946;SDS011;8072;52.554;7.966;2023-08-17T03:40:04;3.00;;;2.03;;
15946;SDS011;8072;52.554;7.966;2023-08-17T03:42:30;4.20;;;2.30;;
15946;SDS011;8072;52.554;7.966;2023-08-17T03:44:56;5.20;;;2.57;;
15946;SDS011;8072;52.554;7.966;2023-08-17T03:47:22;4.80;;;2.30;;
15946;SDS011;8072;52.554;7.966;2023-08-17T03:49:47;5.73;;;2.90;;
15946;SDS011;8072;52.554;7.966;2023-08-17T03:52:13;4.97;;;2.20;;
15946;SDS011;8072;52.554;7.966;2023-08-17T03:54:39;7.17;;;2.63;;
15946;SDS011;8072;52.554;7.966;2023-08-17T03:57:04;7.60;;;2.30;;
15946;SDS011;8072;52.554;7.966;2023-08-17T03:59:30;6.47;;;2.70;;
15946;SDS011;8072;52.554;7.966;2023-08-17T04:01:56;4.23;;;2.40;;
15946;SDS011;8072;52.554;7.966;2023-08-17T04:04:21;5.33;;;2.63;;
15946;SDS011;8072;52.554;7.966;2023-08-17T04:06:47;7.57;;;3.20;;
15946;SDS011;8072;52.554;7.966;2023-08-17T04:09:13;7.60;;;2.97;;
15946;SDS011;8072;52.554;7.966;2023-08-17T04:11:39;4.53;;;2.53;;
15946;SDS011;8072;52.554;7.966;2023-08-17T04:14:04;4.80;;;2.80;;
15946;SDS011;8072;52.554;7.966;2023-08-17T04:16:30;5.37;;;3.17;;
15946;SDS011;8072;52.554;7.966;2023-08-17T04:18:57;9.20;;;3.20;;
15946;SDS011;8072;52.554;7.966;2023-08-17T04:21:22;8.13;;;2.80;;
15946;SDS011;8072;52.554;7.966;2023-08-17T04:23:48;6.77;;;2.40;;
15946;SDS011;8072;52.554;7.966;2023-08-17T04:26:14;6.63;;;2.70;;
15946;SDS011;8072;52.554;7.966;2023-08-17T04:28:40;8.63;;;2.90;;
15946;SDS011;8072;52.554;7.966;2023-08-17T04:31:06;5.43;;;2.60;;
15946;SDS011;8072;52.554;7.966;2023-08-17T04:33:31;6.63;;;2.80;;
15946;SDS011;8072;52.554;7.966;2023-08-17T04:35:57;5.27;;;2.50;;
15946;SDS011;8072;52.554;7.966;2023-08-17T04:38:24;6.70;;;2.50;;
15946;SDS011;8072;52.554;7.966;2023-08-17T04:40:50;6.43;;;2.80;;
15946;SDS011;8072;52.554;7.966;2023-08-17T04:43:16;5.03;;;2.60;;
15946;SDS011;8072;52.554;7.966;2023-08-17T04:45:41;4.47;;;2.50;;
15946;SDS011;8072;52.554;7.966;2023-08-17T04:48:07;6.57;;;3.00;;
15946;SDS011;8072;52.554;7.966;2023-08-17T04:50:33;6.40;;;2.80;;
15946;SDS011;8072;52.554;7.966;2023-08-17T04:52:59;6.77;;;2.87;;
15946;SDS011;8072;52.554;7.966;2023-08-17T04:55:24;8.27;;;3.03;;
15946;SDS011;8072;52.554;7.966;2023-08-17T04:57:50;5.43;;;2.33;;
15946;SDS011;8072;52.554;7.966;2023-08-17T05:00:16;6.50;;;2.67;;
15946;SDS011;8072;52.554;7.966;2023-08-17T05:02:42;4.87;;;2.70;;
15946;SDS011;8072;52.554;7.966;2023-08-17T05:05:09;5.87;;;2.53;;
15946;SDS011;8072;52.554;7.966;2023-08-17T05:07:35;5.07;;;2.40;;
15946;SDS011;8072;52.554;7.966;2023-08-17T05:10:01;6.27;;;2.80;;
15946;SDS011;8072;52.554;7.966;2023-08-17T05:12:27;5.63;;;2.53;;
15946;SDS011;8072;52.554;7.966;2023-08-17T05:14:54;8.50;;;3.07;;
15946;SDS011;8072;52.554;7.966;2023-08-17T05:17:19;5.83;;;2.70;;
15946;SDS011;8072;52.554;7.966;2023-08-17T05:19:45;7.93;;;2.77;;
15946;SDS011;8072;52.554;7.966;2023-08-17T05:22:12;5.20;;;3.10;;
15946;SDS011;8072;52.554;7.966;2023-08-17T05:24:38;7.23;;;2.80;;
15946;SDS011;8072;52.554;7.966;2023-08-17T05:27:04;5.07;;;2.37;;
15946;SDS011;8072;52.554;7.966;2023-08-17T05:29:31;9.63;;;3.37;;
15946;SDS011;8072;52.554;7.966;2023-08-17T05:31:59;5.13;;;2.83;;
15946;SDS011;8072;52.554;7.966;2023-08-17T05:34:25;4.93;;;2.33;;
15946;SDS011;8072;52.554;7.966;2023-08-17T05:36:51;5.90;;;2.60;;
15946;SDS011;8072;52.554;7.966;2023-08-17T05:39:17;4.93;;;2.50;;
15946;SDS011;8072;52.554;7.966;2023-08-17T05:41:43;4.90;;;2.80;;
15946;SDS011;8072;52.554;7.966;2023-08-17T05:44:09;5.97;;;2.50;;
15946;SDS011;8072;52.554;7.966;2023-08-17T05:46:35;6.47;;;2.20;;
15946;SDS011;8072;52.554;7.966;2023-08-17T05:49:01;7.87;;;2.50;;
15946;SDS011;8072;52.554;7.966;2023-08-17T05:51:27;6.10;;;2.37;;
15946;SDS011;8072;52.554;7.966;2023-08-17T05:53:53;6.30;;;2.53;;
15946;SDS011;8072;52.554;7.966;2023-08-17T05:56:19;8.33;;;2.30;;
15946;SDS011;8072;52.554;7.966;2023-08-17T05:58:45;7.77;;;2.50;;
15946;SDS011;8072;52.554;7.966;2023-08-17T06:01:11;6.87;;;2.47;;
15946;SDS011;8072;52.554;7.966;2023-08-17T06:03:38;5.63;;;2.53;;
15946;SDS011;8072;52.554;7.966;2023-08-17T06:06:04;5.47;;;2.23;;
15946;SDS011;8072;52.554;7.966;2023-08-17T06:08:31;5.27;;;2.50;;
15946;SDS011;8072;52.554;7.966;2023-08-17T06:10:57;7.97;;;2.60;;
15946;SDS011;8072;52.554;7.966;2023-08-17T06:13:23;5.93;;;2.50;;
15946;SDS011;8072;52.554;7.966;2023-08-17T06:15:49;4.90;;;2.40;;
15946;SDS011;8072;52.554;7.966;2023-08-17T06:18:15;9.10;;;2.30;;
15946;SDS011;8072;52.554;7.966;2023-08-17T06:20:41;6.23;;;2.50;;
15946;SDS011;8072;52.554;7.966;2023-08-17T06:23:07;6.23;;;2.30;;
15946;SDS011;8072;52.554;7.966;2023-08-17T06:25:32;4.90;;;2.60;;
15946;SDS011;8072;52.554;7.966;2023-08-17T06:27:59;6.23;;;2.60;;
15946;SDS011;8072;52.554;7.966;2023-08-17T06:30:26;6.57;;;2.57;;
15946;SDS011;8072;52.554;7.966;2023-08-17T06:32:51;5.87;;;2.70;;
15946;SDS011;8072;52.554;7.966;2023-08-17T06:35:17;5.07;;;2.50;;
15946;SDS011;8072;52.554;7.966;2023-08-17T06:37:43;4.77;;;2.47;;
15946;SDS011;8072;52.554;7.966;2023-08-17T06:40:09;4.80;;;2.40;;
15946;SDS011;8072;52.554;7.966;2023-08-17T06:42:35;6.07;;;2.77;;
15946;SDS011;8072;52.554;7.966;2023-08-17T06:45:01;6.37;;;2.80;;
15946;SDS011;8072;52.554;7.966;2023-08-17T06:47:28;7.97;;;3.03;;
15946;SDS011;8072;52.554;7.966;2023-08-17T06:49:54;9.03;;;4.17;;
15946;SDS011;8072;52.554;7.966;2023-08-17T06:52:20;4.57;;;2.63;;
15946;SDS011;8072;52.554;7.966;2023-08-17T06:54:46;5.03;;;3.17;;
15946;SDS011;8072;52.554;7.966;2023-08-17T06:57:11;8.10;;;3.30;;
15946;SDS011;8072;52.554;7.966;2023-08-17T06:59:37;7.13;;;3.93;;
15946;SDS011;8072;52.554;7.966;2023-08-17T07:02:03;9.30;;;4.23;;
15946;SDS011;8072;52.554;7.966;2023-08-17T07:04:29;5.33;;;3.07;;
15946;SDS011;8072;52.554;7.966;2023-08-17T07:06:54;5.40;;;2.80;;
15946;SDS011;8072;52.554;7.966;2023-08-17T07:09:20;6.23;;;3.43;;
15946;SDS011;8072;52.554;7.966;2023-08-17T07:11:46;6.93;;;3.50;;
15946;SDS011;8072;52.554;7.966;2023-08-17T07:14:12;5.77;;;4.10;;
15946;SDS011;8072;52.554;7.966;2023-08-17T07:16:37;5.70;;;4.60;;
15946;SDS011;8072;52.554;7.966;2023-08-17T07:19:03;5.10;;;4.20;;
15946;SDS011;8072;52.554;7.966;2023-08-17T07:21:29;7.27;;;4.03;;
15946;SDS011;8072;52.554;7.966;2023-08-17T07:23:55;5.30;;;3.67;;
15946;SDS011;8072;52.554;7.966;2023-08-17T07:26:21;4.40;;;3.60;;
15946;SDS011;8072;52.554;7.966;2023-08-17T07:28:48;7.47;;;3.80;;
15946;SDS011;8072;52.554;7.966;2023-08-17T07:31:14;7.97;;;3.23;;
15946;SDS011;8072;52.554;7.966;2023-08-17T07:33:40;6.03;;;3.63;;
15946;SDS011;8072;52.554;7.966;2023-08-17T07:36:05;9.03;;;4.40;;
15946;SDS011;8072;52.554;7.966;2023-08-17T07:38:31;8.60;;;4.73;;
15946;SDS011;8072;52.554;7.966;2023-08-17T07:40:57;9.10;;;4.30;;
15946;SDS011;8072;52.554;7.966;2023-08-17T07:43:23;7.63;;;3.67;;
15946;SDS011;8072;52.554;7.966;2023-08-17T07:45:56;7.57;;;3.70;;
15946;SDS011;8072;52.554;7.966;2023-08-17T07:48:22;6.17;;;3.93;;
15946;SDS011;8072;52.554;7.966;2023-08-17T07:50:51;6.63;;;4.00;;
15946;SDS011;8072;52.554;7.966;2023-08-17T07:53:17;10.30;;;4.07;;
15946;SDS011;8072;52.554;7.966;2023-08-17T07:55:46;9.53;;;4.60;;
15946;SDS011;8072;52.554;7.966;2023-08-17T07:58:12;10.07;;;5.40;;
15946;SDS011;8072;52.554;7.966;2023-08-17T08:00:38;5.60;;;4.40;;
15946;SDS011;8072;52.554;7.966;2023-08-17T08:03:03;7.33;;;5.33;;
15946;SDS011;8072;52.554;7.966;2023-08-17T08:05:29;13.67;;;4.70;;
15946;SDS011;8072;52.554;7.966;2023-08-17T08:07:55;9.33;;;4.60;;
15946;SDS011;8072;52.554;7.966;2023-08-17T08:10:21;9.33;;;5.60;;
15946;SDS011;8072;52.554;7.966;2023-08-17T08:12:47;6.77;;;5.10;;
15946;SDS011;8072;52.554;7.966;2023-08-17T08:15:13;8.27;;;5.20;;
15946;SDS011;8072;52.554;7.966;2023-08-17T08:17:38;7.80;;;5.20;;
15946;SDS011;8072;52.554;7.966;2023-08-17T08:20:04;6.87;;;4.73;;
15946;SDS011;8072;52.554;7.966;2023-08-17T08:22:31;8.93;;;6.00;;
15946;SDS011;8072;52.554;7.966;2023-08-17T08:24:57;9.17;;;6.13;;
15946;SDS011;8072;52.554;7.966;2023-08-17T08:27:23;12.53;;;8.27;;
15946;SDS011;8072;52.554;7.966;2023-08-17T08:29:50;9.60;;;6.50;;
15946;SDS011;8072;52.554;7.966;2023-08-17T08:32:15;15.07;;;7.40;;
15946;SDS011;8072;52.554;7.966;2023-08-17T08:34:41;12.47;;;6.57;;
15946;SDS011;8072;52.554;7.966;2023-08-17T08:37:07;15.87;;;10.27;;
15946;SDS011;8072;52.554;7.966;2023-08-17T08:39:33;12.40;;;8.30;;
15946;SDS011;8072;52.554;7.966;2023-08-17T08:42:17;20.03;;;10.70;;
15946;SDS011;8072;52.554;7.966;2023-08-17T08:44:43;10.57;;;7.23;;
15946;SDS011;8072;52.554;7.966;2023-08-17T08:47:10;9.60;;;6.73;;
15946;SDS011;8072;52.554;7.966;2023-08-17T08:49:40;9.47;;;6.17;;
15946;SDS011;8072;52.554;7.966;2023-08-17T08:52:28;9.03;;;6.07;;
15946;SDS011;8072;52.554;7.966;2023-08-17T08:55:03;8.93;;;5.60;;
15946;SDS011;8072;52.554;7.966;2023-08-17T08:57:50;9.40;;;6.23;;
15946;SDS011;8072;52.554;7.966;2023-08-17T09:00:18;7.50;;;5.70;;
15946;SDS011;8072;52.554;7.966;2023-08-17T09:02:44;9.67;;;5.80;;
15946;SDS011;8072;52.554;7.966;2023-08-17T09:05:11;7.27;;;6.00;;
15946;SDS011;8072;52.554;7.966;2023-08-17T09:07:39;9.57;;;5.90;;
15946;SDS011;8072;52.554;7.966;2023-08-17T09:10:06;7.67;;;5.60;;
15946;SDS011;8072;52.554;7.966;2023-08-17T09:12:34;10.33;;;5.30;;
15946;SDS011;8072;52.554;7.966;2023-08-17T09:14:59;12.07;;;6.17;;
15946;SDS011;8072;52.554;7.966;2023-08-17T09:17:25;9.07;;;6.70;;
15946;SDS011;8072;52.554;7.966;2023-08-17T09:19:52;7.90;;;5.80;;
15946;SDS011;8072;52.554;7.966;2023-08-17T09:22:25;10.57;;;6.53;;
15946;SDS011;8072;52.554;7.966;2023-08-17T09:25:11;8.57;;;5.80;;
15946;SDS011;8072;52.554;7.966;2023-08-17T09:27:48;9.47;;;6.07;;
15946;SDS011;8072;52.554;7.966;2023-08-17T09:30:14;8.63;;;6.33;;
15946;SDS011;8072;52.554;7.966;2023-08-17T09:32:40;8.93;;;6.40;;
15946;SDS011;8072;52.554;7.966;2023-08-17T09:35:06;9.13;;;6.10;;
15946;SDS011;8072;52.554;7.966;2023-08-17T09:37:34;11.53;;;6.93;;
15946;SDS011;8072;52.554;7.966;2023-08-17T09:40:00;11.50;;;6.90;;
15946;SDS011;8072;52.554;7.966;2023-08-17T09:42:26;12.00;;;6.83;;
15946;SDS011;8072;52.554;7.966;2023-08-17T09:44:53;10.90;;;7.30;;
15946;SDS011;8072;52.554;7.966;2023-08-17T09:47:21;10.43;;;7.60;;
15946;SDS011;8072;52.554;7.966;2023-08-17T09:49:50;11.27;;;6.90;;
15946;SDS011;8072;52.554;7.966;2023-08-17T09:52:18;11.25;;;7.97;;
15946;SDS011;8072;52.554;7.966;2023-08-17T09:54:45;10.53;;;7.83;;
15946;SDS011;8072;52.554;7.966;2023-08-17T09:57:12;11.70;;;6.90;;
15946;SDS011;8072;52.554;7.966;2023-08-17T09:59:38;10.07;;;7.47;;
15946;SDS011;8072;52.554;7.966;2023-08-17T10:02:04;11.67;;;8.20;;
15946;SDS011;8072;52.554;7.966;2023-08-17T10:04:40;12.00;;;8.20;;
15946;SDS011;8072;52.554;7.966;2023-08-17T10:07:06;11.70;;;8.07;;
15946;SDS011;8072;52.554;7.966;2023-08-17T10:09:36;12.83;;;7.77;;
15946;SDS011;8072;52.554;7.966;2023-08-17T10:12:10;9.98;;;8.15;;
15946;SDS011;8072;52.554;7.966;2023-08-17T10:14:42;12.95;;;8.02;;
15946;SDS011;8072;52.554;7.966;2023-08-17T10:17:19;10.55;;;6.90;;
15946;SDS011;8072;52.554;7.966;2023-08-17T10:19:56;10.93;;;7.27;;
15946;SDS011;8072;52.554;7.966;2023-08-17T10:24:57;10.65;;;6.93;;
15946;SDS011;8072;52.554;7.966;2023-08-17T10:27:25;9.50;;;6.47;;
15946;SDS011;8072;52.554;7.966;2023-08-17T10:29:52;10.20;;;6.95;;
15946;SDS011;8072;52.554;7.966;2023-08-17T10:32:20;11.10;;;7.82;;
15946;SDS011;8072;52.554;7.966;2023-08-17T10:34:47;12.13;;;7.47;;
15946;SDS011;8072;52.554;7.966;2023-08-17T10:37:14;10.38;;;7.28;;
15946;SDS011;8072;52.554;7.966;2023-08-17T10:39:45;10.52;;;7.63;;
15946;SDS011;8072;52.554;7.966;2023-08-17T10:42:14;12.27;;;9.13;;
15946;SDS011;8072;52.554;7.966;2023-08-17T10:44:41;13.10;;;7.93;;
15946;SDS011;8072;52.554;7.966;2023-08-17T10:47:31;10.77;;;7.68;;
15946;SDS011;8072;52.554;7.966;2023-08-17T10:49:58;10.35;;;7.60;;
15946;SDS011;8072;52.554;7.966;2023-08-17T10:54:57;9.80;;;7.40;;
15946;SDS011;8072;52.554;7.966;2023-08-17T10:57:40;11.32;;;7.45;;
15946;SDS011;8072;52.554;7.966;2023-08-17T11:00:20;7.28;;;6.53;;
15946;SDS011;8072;52.554;7.966;2023-08-17T11:02:56;6.38;;;5.78;;
15946;SDS011;8072;52.554;7.966;2023-08-17T11:11:03;8.45;;;6.40;;
15946;SDS011;8072;52.554;7.966;2023-08-17T11:13:37;11.18;;;7.18;;
15946;SDS011;8072;52.554;7.966;2023-08-17T11:16:04;10.68;;;6.00;;
15946;SDS011;8072;52.554;7.966;2023-08-17T11:18:31;10.30;;;6.60;;
15946;SDS011;8072;52.554;7.966;2023-08-17T11:20:57;10.88;;;6.72;;
15946;SDS011;8072;52.554;7.966;2023-08-17T11:23:23;9.18;;;6.68;;
15946;SDS011;8072;52.554;7.966;2023-08-17T11:25:51;8.63;;;6.75;;
15946;SDS011;8072;52.554;7.966;2023-08-17T11:28:19;9.32;;;6.60;;
15946;SDS011;8072;52.554;7.966;2023-08-17T11:30:45;8.05;;;6.40;;
15946;SDS011;8072;52.554;7.966;2023-08-17T11:33:21;7.85;;;6.50;;
15946;SDS011;8072;52.554;7.966;2023-08-17T11:35:47;8.95;;;6.70;;
15946;SDS011;8072;52.554;7.966;2023-08-17T11:38:15;10.63;;;7.45;;
15946;SDS011;8072;52.554;7.966;2023-08-17T11:40:40;7.65;;;6.63;;
15946;SDS011;8072;52.554;7.966;2023-08-17T11:43:06;7.65;;;6.38;;
15946;SDS011;8072;52.554;7.966;2023-08-17T11:45:32;10.07;;;6.95;;
15946;SDS011;8072;52.554;7.966;2023-08-17T11:47:59;7.38;;;6.25;;
15946;SDS011;8072;52.554;7.966;2023-08-17T11:50:25;8.48;;;6.68;;
15946;SDS011;8072;52.554;7.966;2023-08-17T11:52:51;7.63;;;5.65;;
15946;SDS011;8072;52.554;7.966;2023-08-17T11:55:17;7.38;;;6.50;;
15946;SDS011;8072;52.554;7.966;2023-08-17T11:57:44;8.13;;;5.93;;
15946;SDS011;8072;52.554;7.966;2023-08-17T12:00:10;7.57;;;6.38;;
15946;SDS011;8072;52.554;7.966;2023-08-17T12:02:41;8.25;;;6.28;;
15946;SDS011;8072;52.554;7.966;2023-08-17T12:05:07;8.25;;;5.88;;
15946;SDS011;8072;52.554;7.966;2023-08-17T12:07:35;8.07;;;5.85;;
15946;SDS011;8072;52.554;7.966;2023-08-17T12:10:04;7.30;;;6.25;;
15946;SDS011;8072;52.554;7.966;2023-08-17T12:12:30;7.55;;;6.00;;
15946;SDS011;8072;52.554;7.966;2023-08-17T12:14:57;8.55;;;5.80;;
15946;SDS011;8072;52.554;7.966;2023-08-17T12:17:23;8.85;;;6.07;;
15946;SDS011;8072;52.554;7.966;2023-08-17T12:19:50;8.15;;;5.97;;
15946;SDS011;8072;52.554;7.966;2023-08-17T12:22:19;7.28;;;5.68;;
15946;SDS011;8072;52.554;7.966;2023-08-17T12:24:48;8.15;;;5.43;;
15946;SDS011;8072;52.554;7.966;2023-08-17T12:27:14;6.97;;;5.15;;
15946;SDS011;8072;52.554;7.966;2023-08-17T12:29:46;6.15;;;4.55;;
15946;SDS011;8072;52.554;7.966;2023-08-17T12:32:16;8.68;;;5.22;;
15946;SDS011;8072;52.554;7.966;2023-08-17T12:34:44;6.78;;;5.13;;
15946;SDS011;8072;52.554;7.966;2023-08-17T12:37:10;4.82;;;4.32;;
15946;SDS011;8072;52.554;7.966;2023-08-17T12:39:37;7.30;;;3.97;;
15946;SDS011;8072;52.554;7.966;2023-08-17T12:42:03;7.90;;;4.30;;
15946;SDS011;8072;52.554;7.966;2023-08-17T12:44:30;8.32;;;4.60;;
15946;SDS011;8072;52.554;7.966;2023-08-17T12:46:57;6.45;;;4.20;;
15946;SDS011;8072;52.554;7.966;2023-08-17T12:49:25;6.93;;;4.88;;
15946;SDS011;8072;52.554;7.966;2023-08-17T12:51:51;10.45;;;4.18;;
15946;SDS011;8072;52.554;7.966;2023-08-17T12:54:17;5.55;;;4.35;;
15946;SDS011;8072;52.554;7.966;2023-08-17T12:56:43;4.55;;;3.83;;
15946;SDS011;8072;52.554;7.966;2023-08-17T12:59:10;8.50;;;4.82;;
15946;SDS011;8072;52.554;7.966;2023-08-17T13:01:36;8.60;;;4.15;;
15946;SDS011;8072;52.554;7.966;2023-08-17T13:04:01;5.82;;;4.18;;
15946;SDS011;8072;52.554;7.966;2023-08-17T13:06:27;9.35;;;5.47;;
15946;SDS011;8072;52.554;7.966;2023-08-17T13:08:53;6.53;;;4.80;;
15946;SDS011;8072;52.554;7.966;2023-08-17T13:11:18;8.52;;;5.32;;
15946;SDS011;8072;52.554;7.966;2023-08-17T13:13:44;5.82;;;4.72;;
15946;SDS011;8072;52.554;7.966;2023-08-17T13:16:10;8.57;;;5.22;;
15946;SDS011;8072;52.554;7.966;2023-08-17T13:18:37;5.55;;;4.50;;
15946;SDS011;8072;52.554;7.966;2023-08-17T13:21:03;6.68;;;4.60;;
15946;SDS011;8072;52.554;7.966;2023-08-17T13:23:28;7.68;;;4.47;;
15946;SDS011;8072;52.554;7.966;2023-08-17T13:25:54;6.13;;;4.13;;
15946;SDS011;8072;52.554;7.966;2023-08-17T13:28:20;7.47;;;4.43;;
15946;SDS011;8072;52.554;7.966;2023-08-17T13:30:46;7.38;;;3.85;;
15946;SDS011;8072;52.554;7.966;2023-08-17T13:33:12;6.80;;;4.10;;
15946;SDS011;8072;52.554;7.966;2023-08-17T13:35:38;6.03;;;4.35;;
15946;SDS011;8072;52.554;7.966;2023-08-17T13:38:04;10.65;;;4.90;;
15946;SDS011;8072;52.554;7.966;2023-08-17T13:40:33;6.03;;;4.38;;
15946;SDS011;8072;52.554;7.966;2023-08-17T13:43:01;6.75;;;4.40;;
15946;SDS011;8072;52.554;7.966;2023-08-17T13:45:28;6.43;;;4.13;;
15946;SDS011;8072;52.554;7.966;2023-08-17T13:47:54;5.15;;;3.75;;
15946;SDS011;8072;52.554;7.966;2023-08-17T13:50:19;5.00;;;3.80;;
15946;SDS011;8072;52.554;7.966;2023-08-17T13:52:45;5.85;;;4.18;;
15946;SDS011;8072;52.554;7.966;2023-08-17T13:55:12;6.50;;;3.83;;
15946;SDS011;8072;52.554;7.966;2023-08-17T13:57:37;6.65;;;4.00;;
15946;SDS011;8072;52.554;7.966;2023-08-17T14:00:03;7.97;;;4.55;;
15946;SDS011;8072;52.554;7.966;2023-08-17T14:02:30;6.30;;;4.00;;
15946;SDS011;8072;52.554;7.966;2023-08-17T14:04:56;7.10;;;3.97;;
15946;SDS011;8072;52.554;7.966;2023-08-17T14:07:22;5.85;;;3.92;;
15946;SDS011;8072;52.554;7.966;2023-08-17T14:09:48;5.38;;;3.97;;
15946;SDS011;8072;52.554;7.966;2023-08-17T14:12:13;4.45;;;3.63;;
15946;SDS011;8072;52.554;7.966;2023-08-17T14:14:39;6.38;;;4.88;;
15946;SDS011;8072;52.554;7.966;2023-08-17T14:17:05;6.50;;;4.90;;
15946;SDS011;8072;52.554;7.966;2023-08-17T14:19:31;6.63;;;4.45;;
15946;SDS011;8072;52.554;7.966;2023-08-17T14:21:56;4.82;;;3.95;;
15946;SDS011;8072;52.554;7.966;2023-08-17T14:24:24;6.25;;;3.88;;
15946;SDS011;8072;52.554;7.966;2023-08-17T14:26:50;6.65;;;3.88;;
15946;SDS011;8072;52.554;7.966;2023-08-17T14:29:15;7.38;;;3.78;;
15946;SDS011;8072;52.554;7.966;2023-08-17T14:31:41;4.80;;;3.35;;
15946;SDS011;8072;52.554;7.966;2023-08-17T14:34:07;4.43;;;3.40;;
15946;SDS011;8072;52.554;7.966;2023-08-17T14:36:33;5.00;;;3.88;;
15946;SDS011;8072;52.554;7.966;2023-08-17T14:38:59;3.88;;;3.47;;
15946;SDS011;8072;52.554;7.966;2023-08-17T14:41:24;4.93;;;3.33;;
15946;SDS011;8072;52.554;7.966;2023-08-17T14:43:56;4.90;;;3.47;;
15946;SDS011;8072;52.554;7.966;2023-08-17T14:46:23;5.43;;;3.67;;
15946;SDS011;8072;52.554;7.966;2023-08-17T14:48:51;5.85;;;4.43;;
15946;SDS011;8072;52.554;7.966;2023-08-17T14:51:17;5.03;;;4.32;;
15946;SDS011;8072;52.554;7.966;2023-08-17T14:53:43;4.72;;;4.22;;
15946;SDS011;8072;52.554;7.966;2023-08-17T14:56:09;5.00;;;3.92;;
15946;SDS011;8072;52.554;7.966;2023-08-17T14:58:34;4.97;;;3.80;;
15946;SDS011;8072;52.554;7.966;2023-08-17T15:01:00;5.85;;;3.75;;
15946;SDS011;8072;52.554;7.966;2023-08-17T15:03:26;5.05;;;3.63;;
15946;SDS011;8072;52.554;7.966;2023-08-17T15:05:52;4.55;;;3.30;;
15946;SDS011;8072;52.554;7.966;2023-08-17T15:08:17;5.43;;;3.42;;
15946;SDS011;8072;52.554;7.966;2023-08-17T15:10:45;12.98;;;3.70;;
15946;SDS011;8072;52.554;7.966;2023-08-17T15:13:12;4.97;;;3.13;;
15946;SDS011;8072;52.554;7.966;2023-08-17T15:15:38;4.40;;;3.30;;